createdAt,value
2022-12-14T00:00:47.550Z,14.43
2022-12-14T00:03:35.076Z,19.13
2022-12-14T00:06:24.330Z,15.80
2022-12-14T00:09:13.178Z,19.53
2022-12-14T00:12:00.239Z,17.50
2022-12-14T00:14:47.689Z,19.07
2022-12-14T00:17:35.825Z,20.83
2022-12-14T00:20:23.662Z,19.17
2022-12-14T00:23:10.812Z,16.87
2022-12-14T00:25:59.687Z,15.13
2022-12-14T00:28:48.353Z,13.77
2022-12-14T00:31:36.417Z,15.97
2022-12-14T00:34:23.624Z,17.97
2022-12-14T00:37:11.044Z,15.97
2022-12-14T00:39:58.622Z,19.80
2022-12-14T00:42:47.012Z,16.90
2022-12-14T00:45:34.118Z,11.37
2022-12-14T00:48:23.802Z,15.00
2022-12-14T00:51:11.208Z,20.50
2022-12-14T00:53:58.498Z,12.57
2022-12-14T00:56:45.802Z,16.80
2022-12-14T00:59:34.639Z,17.03
2022-12-14T01:02:22.011Z,18.90
2022-12-14T01:05:10.052Z,14.47
2022-12-14T01:07:57.640Z,11.13
2022-12-14T01:10:45.022Z,16.07
2022-12-14T01:13:32.413Z,17.33
2022-12-14T01:16:23.079Z,14.90
2022-12-14T01:19:13.617Z,15.03
2022-12-14T01:22:00.786Z,14.27
2022-12-14T01:24:48.577Z,13.77
2022-12-14T01:27:35.761Z,10.23
2022-12-14T01:30:23.134Z,13.93
2022-12-14T01:33:11.925Z,14.73
2022-12-14T01:36:01.443Z,12.83
2022-12-14T01:38:49.449Z,15.00
2022-12-14T01:41:39.338Z,15.50
2022-12-14T01:44:54.243Z,13.00
2022-12-14T01:47:44.468Z,14.17
2022-12-14T01:50:37.371Z,13.27
2022-12-14T01:53:25.459Z,16.40
2022-12-14T01:56:13.248Z,17.77
2022-12-14T01:59:04.257Z,14.60
2022-12-14T02:01:52.644Z,12.43
2022-12-14T02:04:43.649Z,12.63
2022-12-14T02:07:33.101Z,14.70
2022-12-14T02:10:22.517Z,14.30
2022-12-14T02:13:15.549Z,14.57
2022-12-14T02:16:03.166Z,14.53
2022-12-14T02:18:50.182Z,19.63
2022-12-14T02:21:52.514Z,15.23
2022-12-14T02:24:57.228Z,16.07
2022-12-14T02:28:03.684Z,18.00
2022-12-14T02:30:58.028Z,13.43
2022-12-14T02:33:51.954Z,15.07
2022-12-14T02:36:46.381Z,12.10
2022-12-14T02:39:42.169Z,11.77
2022-12-14T02:42:40.271Z,14.23
2022-12-14T02:45:36.298Z,14.13
2022-12-14T02:48:31.078Z,15.10
2022-12-14T02:51:27.317Z,12.57
2022-12-14T02:54:21.964Z,13.73
2022-12-14T02:57:18.279Z,13.93
2022-12-14T03:00:08.039Z,15.87
2022-12-14T03:02:56.762Z,17.70
2022-12-14T03:05:55.391Z,16.07
2022-12-14T03:08:45.600Z,14.47
2022-12-14T03:11:38.989Z,11.93
2022-12-14T03:14:30.621Z,14.23
2022-12-14T03:17:21.453Z,13.57
2022-12-14T03:20:12.335Z,14.87
2022-12-14T03:23:06.645Z,14.13
2022-12-14T03:25:58.539Z,13.20
2022-12-14T03:28:49.433Z,9.23
2022-12-14T03:31:43.889Z,14.27
2022-12-14T03:34:40.235Z,16.27
2022-12-14T03:37:33.643Z,11.40
2022-12-14T03:40:27.937Z,10.10
2022-12-14T03:43:19.863Z,17.40
2022-12-14T03:46:14.472Z,11.83
2022-12-14T03:49:13.820Z,13.03
2022-12-14T03:52:07.935Z,14.93
2022-12-14T03:55:05.730Z,14.33
2022-12-14T03:58:12.533Z,10.80
2022-12-14T04:01:07.771Z,13.87
2022-12-14T04:04:00.353Z,15.83
2022-12-14T04:06:54.036Z,13.83
2022-12-14T04:09:47.494Z,10.07
2022-12-14T04:12:56.678Z,14.00
2022-12-14T04:16:04.228Z,11.33
2022-12-14T04:19:00.482Z,14.30
2022-12-14T04:21:52.586Z,14.53
2022-12-14T04:25:02.434Z,14.00
2022-12-14T04:27:53.101Z,11.50
2022-12-14T04:30:40.279Z,11.23
2022-12-14T04:33:48.021Z,11.80
2022-12-14T04:36:40.085Z,10.60
2022-12-14T04:39:32.380Z,13.17
2022-12-14T04:42:24.850Z,10.57
2022-12-14T04:45:16.769Z,9.47
2022-12-14T04:48:11.466Z,19.90
2022-12-14T04:51:08.774Z,11.07
2022-12-14T04:54:00.934Z,11.53
2022-12-14T04:56:53.293Z,13.80
2022-12-14T04:59:40.805Z,12.10
2022-12-14T05:02:40.241Z,11.10
2022-12-14T05:05:35.515Z,16.90
2022-12-14T05:08:37.373Z,7.63
2022-12-14T05:14:40.534Z,11.90
2022-12-14T05:17:28.604Z,10.43
2022-12-14T05:20:19.064Z,12.50
2022-12-14T05:23:06.521Z,10.73
2022-12-14T05:25:55.591Z,9.70
2022-12-14T05:28:45.916Z,17.87
2022-12-14T05:31:37.490Z,14.63
2022-12-14T05:34:25.124Z,12.10
2022-12-14T05:37:17.963Z,11.30
2022-12-14T05:40:06.900Z,11.13
2022-12-14T05:43:05.055Z,15.77
2022-12-14T05:45:52.165Z,16.30
2022-12-14T05:48:39.663Z,13.70
2022-12-14T05:51:26.893Z,10.87
2022-12-14T05:54:14.337Z,11.40
2022-12-14T05:57:01.648Z,9.07
2022-12-14T05:59:50.687Z,11.87
2022-12-14T06:02:38.217Z,14.03
2022-12-14T06:05:25.480Z,15.23
2022-12-14T06:08:12.617Z,11.90
2022-12-14T06:11:03.650Z,10.27
2022-12-14T06:13:51.232Z,10.00
2022-12-14T06:16:41.488Z,16.00
2022-12-14T06:19:29.084Z,14.07
2022-12-14T06:22:16.096Z,11.17
2022-12-14T06:25:03.522Z,14.00
2022-12-14T06:27:54.375Z,8.20
2022-12-14T06:30:41.736Z,8.93
2022-12-14T06:33:31.150Z,13.33
2022-12-14T06:36:19.786Z,11.27
2022-12-14T06:39:09.226Z,13.53
2022-12-14T06:41:56.801Z,11.97
2022-12-14T06:44:44.133Z,11.93
2022-12-14T06:47:31.601Z,14.53
2022-12-14T06:50:20.484Z,9.77
2022-12-14T06:53:07.722Z,9.43
2022-12-14T06:55:55.126Z,11.20
2022-12-14T06:58:42.658Z,12.17
2022-12-14T07:01:30.643Z,14.17
2022-12-14T07:04:20.938Z,12.23
2022-12-14T07:07:10.433Z,13.40
2022-12-14T07:09:57.755Z,9.27
2022-12-14T07:12:45.251Z,14.70
2022-12-14T07:15:32.974Z,13.60
2022-12-14T07:18:21.380Z,10.37
2022-12-14T07:21:10.522Z,12.23
2022-12-14T07:24:01.517Z,12.60
2022-12-14T07:26:49.082Z,8.77
2022-12-14T07:29:36.377Z,10.17
2022-12-14T07:32:23.808Z,11.77
2022-12-14T07:35:16.420Z,11.27
2022-12-14T07:38:04.854Z,15.00
2022-12-14T07:40:53.975Z,13.10
2022-12-14T07:43:42.623Z,12.07
2022-12-14T07:46:32.007Z,15.73
2022-12-14T07:49:20.022Z,15.23
2022-12-14T07:52:07.361Z,10.47
2022-12-14T07:54:54.774Z,17.50
2022-12-14T07:57:43.626Z,12.40
2022-12-14T08:00:30.680Z,16.90
2022-12-14T08:03:18.049Z,12.57
2022-12-14T08:06:07.103Z,14.93
2022-12-14T08:08:54.771Z,13.70
2022-12-14T08:11:41.772Z,15.13
2022-12-14T08:14:30.653Z,17.13
2022-12-14T08:17:17.903Z,12.77
2022-12-14T08:20:06.494Z,13.27
2022-12-14T08:22:53.567Z,13.40
2022-12-14T08:25:40.977Z,8.73
2022-12-14T08:28:29.655Z,14.80
2022-12-14T08:31:19.914Z,15.70
2022-12-14T08:34:07.290Z,10.30
2022-12-14T08:36:54.774Z,9.57
2022-12-14T08:39:42.126Z,12.10
2022-12-14T08:42:29.578Z,11.93
2022-12-14T08:45:17.028Z,13.03
2022-12-14T08:48:05.856Z,13.07
2022-12-14T08:50:54.730Z,13.07
2022-12-14T08:53:42.146Z,12.83
2022-12-14T08:56:30.110Z,11.50
2022-12-14T08:59:37.047Z,11.80
2022-12-14T09:02:24.616Z,11.60
2022-12-14T09:05:13.386Z,13.93
2022-12-14T09:08:00.694Z,9.40
2022-12-14T09:10:50.389Z,17.87
2022-12-14T09:13:37.862Z,11.27
2022-12-14T09:16:27.193Z,13.43
2022-12-14T09:19:14.770Z,16.17
2022-12-14T09:22:04.102Z,14.70
2022-12-14T09:24:52.159Z,15.20
2022-12-14T09:27:39.559Z,10.07
2022-12-14T09:30:27.312Z,16.43
2022-12-14T09:33:14.582Z,14.47
2022-12-14T09:36:03.604Z,14.73
2022-12-14T09:38:55.083Z,11.73
2022-12-14T09:42:00.765Z,12.50
2022-12-14T09:44:58.937Z,12.07
2022-12-14T09:47:54.328Z,12.93
2022-12-14T09:50:41.884Z,11.90
2022-12-14T09:53:29.629Z,12.27
2022-12-14T09:56:20.148Z,12.03
2022-12-14T09:59:07.568Z,12.97
2022-12-14T10:02:30.343Z,18.30
2022-12-14T10:05:21.193Z,12.40
2022-12-14T10:08:14.554Z,11.60
2022-12-14T10:11:07.254Z,12.17
2022-12-14T10:14:09.270Z,14.03
2022-12-14T10:17:05.996Z,15.23
2022-12-14T10:19:55.428Z,13.97
2022-12-14T10:22:46.186Z,11.93
2022-12-14T10:25:36.430Z,14.67
2022-12-14T10:28:30.892Z,10.73
2022-12-14T10:31:27.727Z,11.23
2022-12-14T10:34:20.597Z,11.87
2022-12-14T10:37:22.704Z,12.20
2022-12-14T10:40:33.104Z,11.33
2022-12-14T10:43:33.932Z,12.33
2022-12-14T10:46:30.098Z,14.13
2022-12-14T10:49:23.417Z,15.77
2022-12-14T10:52:17.594Z,11.17
2022-12-14T10:55:12.633Z,14.03
2022-12-14T10:58:00.651Z,16.13
2022-12-14T11:00:54.231Z,15.20
2022-12-14T11:03:47.538Z,13.50
2022-12-14T11:06:35.211Z,13.23
2022-12-14T11:09:24.287Z,11.73
2022-12-14T11:12:19.882Z,12.40
2022-12-14T11:15:23.277Z,14.13
2022-12-14T11:18:27.913Z,13.80
2022-12-14T11:21:16.905Z,16.97
2022-12-14T11:24:05.218Z,12.67
2022-12-14T11:26:54.556Z,15.80
2022-12-14T11:29:47.114Z,14.67
2022-12-14T11:32:34.464Z,13.13
2022-12-14T11:35:22.793Z,17.53
2022-12-14T11:38:16.709Z,16.13
2022-12-14T11:41:11.041Z,13.47
2022-12-14T11:44:04.747Z,15.57
2022-12-14T11:46:56.367Z,11.70
2022-12-14T11:49:49.454Z,13.90
2022-12-14T11:52:42.879Z,12.07
2022-12-14T11:55:32.008Z,11.23
2022-12-14T11:58:23.124Z,12.33
2022-12-14T12:01:14.622Z,16.67
2022-12-14T12:04:03.216Z,14.73
2022-12-14T12:06:51.317Z,11.73
2022-12-14T12:09:38.872Z,12.80
2022-12-14T12:12:27.939Z,11.67
2022-12-14T12:15:19.540Z,11.83
2022-12-14T12:18:14.394Z,14.93
2022-12-14T12:21:08.026Z,13.97
2022-12-14T12:24:00.104Z,12.33
2022-12-14T12:26:51.289Z,13.27
2022-12-14T12:29:46.549Z,16.37
2022-12-14T12:32:38.393Z,13.30
2022-12-14T12:35:33.728Z,15.60
2022-12-14T12:38:33.546Z,13.90
2022-12-14T12:41:28.994Z,15.73
2022-12-14T12:44:41.457Z,12.60
2022-12-14T12:47:46.085Z,13.20
2022-12-14T12:50:38.778Z,15.10
2022-12-14T12:53:31.467Z,12.70
2022-12-14T12:56:21.463Z,14.77
2022-12-14T12:59:15.530Z,10.43
2022-12-14T13:02:19.005Z,13.23
2022-12-14T13:05:44.338Z,14.57
2022-12-14T13:08:27.316Z,11.57
2022-12-14T13:11:27.785Z,12.53
2022-12-14T13:14:24.001Z,12.27
2022-12-14T13:17:26.085Z,13.30
2022-12-14T13:20:21.991Z,14.00
2022-12-14T13:23:43.674Z,15.00
2022-12-14T13:26:57.198Z,14.67
2022-12-14T13:29:52.284Z,13.23
2022-12-14T13:32:50.193Z,10.60
2022-12-14T13:35:50.823Z,15.00
2022-12-14T13:39:02.634Z,10.40
2022-12-14T13:41:56.308Z,12.73
2022-12-14T13:44:56.872Z,14.60
2022-12-14T13:47:48.523Z,12.03
2022-12-14T13:50:42.414Z,15.17
2022-12-14T13:53:48.350Z,13.70
2022-12-14T13:56:40.399Z,17.97
2022-12-14T13:59:34.037Z,15.77
2022-12-14T14:02:42.459Z,12.00
2022-12-14T14:05:46.755Z,13.40
2022-12-14T14:08:41.319Z,15.50
2022-12-14T14:11:58.937Z,16.13
2022-12-14T14:14:51.905Z,14.77
2022-12-14T14:17:42.671Z,11.30
2022-12-14T14:20:38.689Z,14.53
2022-12-14T14:23:36.845Z,16.80
2022-12-14T14:26:33.329Z,16.13
2022-12-14T14:29:25.809Z,16.43
2022-12-14T14:32:33.305Z,18.83
2022-12-14T14:35:31.469Z,18.17
2022-12-14T14:38:27.171Z,14.87
2022-12-14T14:41:23.815Z,14.20
2022-12-14T14:44:27.294Z,15.97
2022-12-14T14:47:21.928Z,17.33
2022-12-14T14:50:27.647Z,14.73
2022-12-14T14:53:29.442Z,15.00
2022-12-14T14:56:47.447Z,17.33
2022-12-14T15:00:02.843Z,18.40
2022-12-14T15:02:53.118Z,22.97
2022-12-14T15:05:43.789Z,15.03
2022-12-14T15:08:38.311Z,15.50
2022-12-14T15:11:27.685Z,18.20
2022-12-14T15:14:35.381Z,17.97
2022-12-14T15:17:25.887Z,16.70
2022-12-14T15:20:23.365Z,16.37
2022-12-14T15:23:15.425Z,14.10
2022-12-14T15:26:04.974Z,16.90
2022-12-14T15:28:54.686Z,15.30
2022-12-14T15:31:42.310Z,20.40
2022-12-14T15:34:31.175Z,20.33
2022-12-14T15:37:26.356Z,19.63
2022-12-14T15:40:22.622Z,21.57
2022-12-14T15:43:18.719Z,16.77
2022-12-14T15:46:17.668Z,19.17
2022-12-14T15:49:08.173Z,24.53
2022-12-14T15:51:58.982Z,22.00
2022-12-14T15:54:47.120Z,19.27
2022-12-14T15:57:34.717Z,19.13
2022-12-14T16:00:22.246Z,21.17
2022-12-14T16:03:28.239Z,23.30
2022-12-14T16:06:16.023Z,22.87
2022-12-14T16:09:09.000Z,20.33
2022-12-14T16:11:58.180Z,21.83
2022-12-14T16:14:49.441Z,21.13
2022-12-14T16:17:38.439Z,21.97
2022-12-14T16:20:27.048Z,16.33
2022-12-14T16:23:31.474Z,24.37
2022-12-14T16:26:24.968Z,23.23
2022-12-14T16:29:21.248Z,20.70
2022-12-14T16:32:16.301Z,22.57
2022-12-14T16:35:03.733Z,20.20
2022-12-14T16:37:53.372Z,20.57
2022-12-14T16:40:43.040Z,18.90
2022-12-14T16:43:35.327Z,21.93
2022-12-14T16:46:23.114Z,22.70
2022-12-14T16:49:32.159Z,22.63
2022-12-14T16:52:26.911Z,20.60
2022-12-14T16:55:16.337Z,24.60
2022-12-14T16:58:03.703Z,22.90
2022-12-14T17:00:59.897Z,26.83
2022-12-14T17:03:54.210Z,17.43
2022-12-14T17:06:47.632Z,23.10
2022-12-14T17:09:36.427Z,23.23
2022-12-14T17:12:25.297Z,20.80
2022-12-14T17:15:14.682Z,27.27
2022-12-14T17:18:05.709Z,25.40
2022-12-14T17:20:53.379Z,21.43
2022-12-14T17:23:44.100Z,20.87
2022-12-14T17:26:32.995Z,24.17
2022-12-14T17:29:22.326Z,27.30
2022-12-14T17:32:11.980Z,26.60
2022-12-14T17:35:01.875Z,25.97
2022-12-14T17:37:49.545Z,25.90
2022-12-14T17:40:37.906Z,24.67
2022-12-14T17:43:27.830Z,28.90
2022-12-14T17:46:15.924Z,42.87
2022-12-14T17:49:06.656Z,28.67
2022-12-14T17:51:55.619Z,27.30
2022-12-14T17:54:42.746Z,27.30
2022-12-14T17:57:30.242Z,32.20
2022-12-14T18:00:36.661Z,26.43
2022-12-14T18:03:24.313Z,28.40
2022-12-14T18:06:17.662Z,29.00
2022-12-14T18:09:07.929Z,24.47
2022-12-14T18:12:22.072Z,23.60
2022-12-14T18:15:02.553Z,26.67
2022-12-14T18:17:51.584Z,27.70
2022-12-14T18:20:41.110Z,25.80
2022-12-14T18:23:29.457Z,28.53
2022-12-14T18:26:21.027Z,25.10
2022-12-14T18:29:08.730Z,28.67
2022-12-14T18:31:56.235Z,28.50
2022-12-14T18:34:43.674Z,34.43
2022-12-14T18:37:32.946Z,38.27
2022-12-14T18:40:22.081Z,36.97
2022-12-14T18:43:16.125Z,32.87
2022-12-14T18:46:03.557Z,30.93
2022-12-14T18:48:51.134Z,31.63
2022-12-14T18:51:38.683Z,22.77
2022-12-14T18:54:55.390Z,28.57
2022-12-14T18:57:43.402Z,27.47
2022-12-14T19:00:34.754Z,27.03
2022-12-14T19:03:22.637Z,31.73
2022-12-14T19:06:43.012Z,26.17
2022-12-14T19:09:20.675Z,26.90
2022-12-14T19:12:08.657Z,26.30
2022-12-14T19:14:56.060Z,35.43
2022-12-14T19:17:45.066Z,27.10
2022-12-14T19:20:32.441Z,34.97
2022-12-14T19:23:20.742Z,29.43
2022-12-14T19:26:07.772Z,26.23
2022-12-14T19:28:55.114Z,24.43
2022-12-14T19:31:42.792Z,26.57
2022-12-14T19:34:31.475Z,25.33
2022-12-14T19:37:22.606Z,30.23
2022-12-14T19:40:13.759Z,27.33
2022-12-14T19:43:01.235Z,24.93
2022-12-14T19:45:48.483Z,27.77
2022-12-14T19:48:36.098Z,24.63
2022-12-14T19:51:24.770Z,22.10
2022-12-14T19:54:12.003Z,26.40
2022-12-14T19:56:59.429Z,26.23
2022-12-14T19:59:47.015Z,31.93
2022-12-14T20:02:34.608Z,27.43
2022-12-14T20:05:22.384Z,27.63
2022-12-14T20:08:11.317Z,25.43
2022-12-14T20:10:59.012Z,30.33
2022-12-14T20:13:49.359Z,30.10
2022-12-14T20:16:39.270Z,29.63
2022-12-14T20:19:26.608Z,26.70
2022-12-14T20:22:14.945Z,30.73
2022-12-14T20:25:03.501Z,24.50
2022-12-14T20:27:52.748Z,27.77
2022-12-14T20:30:43.835Z,26.80
2022-12-14T20:33:31.284Z,30.90
2022-12-14T20:36:19.093Z,28.93
2022-12-14T20:39:06.993Z,27.80
2022-12-14T20:41:55.564Z,25.73
2022-12-14T20:44:42.838Z,27.23
2022-12-14T20:47:30.381Z,25.33
2022-12-14T20:50:17.902Z,29.20
2022-12-14T20:53:20.434Z,29.10
2022-12-14T20:56:08.802Z,28.33
2022-12-14T20:58:57.770Z,33.53
2022-12-14T21:01:50.065Z,25.20
2022-12-14T21:04:41.177Z,33.43
2022-12-14T21:07:28.920Z,29.67
2022-12-14T21:10:16.387Z,29.70
2022-12-14T21:13:07.559Z,28.77
2022-12-14T21:15:56.788Z,26.53
2022-12-14T21:18:43.972Z,27.17
2022-12-14T21:21:31.781Z,26.20
2022-12-14T21:24:37.348Z,31.97
2022-12-14T21:27:30.145Z,26.83
2022-12-14T21:30:18.395Z,26.57
2022-12-14T21:33:07.086Z,30.13
2022-12-14T21:35:54.303Z,31.77
2022-12-14T21:38:41.853Z,32.17
2022-12-14T21:41:47.062Z,29.90
2022-12-14T21:44:35.780Z,31.83
2022-12-14T21:47:25.293Z,31.40
2022-12-14T21:50:13.791Z,28.53
2022-12-14T21:53:01.249Z,35.67
2022-12-14T21:56:12.595Z,32.63
2022-12-14T21:58:58.971Z,31.80
2022-12-14T22:01:46.540Z,29.40
2022-12-14T22:04:39.525Z,27.33
2022-12-14T22:07:31.825Z,29.20
2022-12-14T22:10:24.534Z,34.17
2022-12-14T22:13:12.413Z,26.53
2022-12-14T22:15:59.947Z,29.13
2022-12-14T22:18:47.581Z,27.70
2022-12-14T22:21:38.801Z,30.37
2022-12-14T22:24:29.031Z,30.73
2022-12-14T22:27:16.502Z,33.70
2022-12-14T22:30:05.411Z,30.03
2022-12-14T22:32:52.811Z,35.37
2022-12-14T22:35:40.396Z,33.13
2022-12-14T22:38:28.127Z,28.23
2022-12-14T22:41:18.211Z,37.07
2022-12-14T22:44:06.294Z,29.33
2022-12-14T22:46:53.656Z,28.70
2022-12-14T22:49:41.156Z,30.20
2022-12-14T22:52:28.658Z,27.47
2022-12-14T22:55:16.401Z,24.73
2022-12-14T22:58:06.482Z,36.57
2022-12-14T23:00:54.550Z,31.13
2022-12-14T23:03:42.048Z,32.13
2022-12-14T23:06:29.884Z,30.57
2022-12-14T23:09:34.795Z,35.00
2022-12-14T23:12:39.795Z,32.37
2022-12-14T23:15:45.672Z,28.20
2022-12-14T23:18:50.295Z,33.83
2022-12-14T23:21:57.072Z,32.27
2022-12-14T23:25:01.540Z,27.83
2022-12-14T23:28:05.956Z,30.77
2022-12-14T23:31:14.549Z,31.23
2022-12-14T23:34:18.930Z,30.73
2022-12-14T23:37:23.359Z,29.80
2022-12-14T23:40:29.057Z,26.63
2022-12-14T23:43:35.705Z,31.20
2022-12-14T23:46:41.890Z,24.93
2022-12-14T23:49:46.357Z,35.83
2022-12-14T23:52:50.710Z,30.67
2022-12-14T23:55:55.002Z,29.07
2022-12-14T23:58:59.436Z,29.47
